sensor_id;sensor_type;location;lat;lon;timestamp;P1;durP1;ratioP1;P2;durP2;ratioP2
3000;SDS011;1510;51.072;6.678;2023-05-10T00:00:53;766.80;;;693.87;;
3000;SDS011;1510;51.072;6.678;2023-05-10T00:03:22;766.90;;;692.87;;
3000;SDS011;1510;51.072;6.678;2023-05-10T00:05:50;759.87;;;685.97;;
3000;SDS011;1510;51.072;6.678;2023-05-10T00:08:18;764.43;;;691.50;;
3000;SDS011;1510;51.072;6.678;2023-05-10T00:10:45;764.87;;;691.47;;
3000;SDS011;1510;51.072;6.678;2023-05-10T00:13:12;768.80;;;695.30;;
3000;SDS011;1510;51.072;6.678;2023-05-10T00:15:39;778.40;;;704.80;;
3000;SDS011;1510;51.072;6.678;2023-05-10T00:18:06;769.87;;;696.37;;
3000;SDS011;1510;51.072;6.678;2023-05-10T00:20:35;775.30;;;701.53;;
3000;SDS011;1510;51.072;6.678;2023-05-10T00:23:02;772.60;;;700.20;;
3000;SDS011;1510;51.072;6.678;2023-05-10T00:25:30;773.63;;;701.13;;
3000;SDS011;1510;51.072;6.678;2023-05-10T00:27:57;771.80;;;699.20;;
3000;SDS011;1510;51.072;6.678;2023-05-10T00:30:26;782.90;;;710.40;;
3000;SDS011;1510;51.072;6.678;2023-05-10T00:32:53;780.30;;;706.70;;
3000;SDS011;1510;51.072;6.678;2023-05-10T00:35:20;755.77;;;682.57;;
3000;SDS011;1510;51.072;6.678;2023-05-10T00:37:47;759.10;;;687.57;;
3000;SDS011;1510;51.072;6.678;2023-05-10T00:40:14;753.13;;;682.60;;
3000;SDS011;1510;51.072;6.678;2023-05-10T00:42:43;761.20;;;690.10;;
3000;SDS011;1510;51.072;6.678;2023-05-10T00:45:10;773.07;;;702.20;;
3000;SDS011;1510;51.072;6.678;2023-05-10T00:47:36;783.37;;;711.07;;
3000;SDS011;1510;51.072;6.678;2023-05-10T00:50:04;765.00;;;694.20;;
3000;SDS011;1510;51.072;6.678;2023-05-10T00:52:35;764.73;;;693.50;;
3000;SDS011;1510;51.072;6.678;2023-05-10T00:55:02;770.33;;;700.17;;
3000;SDS011;1510;51.072;6.678;2023-05-10T00:57:30;756.87;;;687.57;;
3000;SDS011;1510;51.072;6.678;2023-05-10T00:59:59;765.77;;;697.07;;
3000;SDS011;1510;51.072;6.678;2023-05-10T01:02:26;759.70;;;689.60;;
3000;SDS011;1510;51.072;6.678;2023-05-10T01:04:53;764.53;;;693.63;;
3000;SDS011;1510;51.072;6.678;2023-05-10T01:07:20;767.53;;;695.67;;
3000;SDS011;1510;51.072;6.678;2023-05-10T01:09:47;760.30;;;688.27;;
3000;SDS011;1510;51.072;6.678;2023-05-10T01:12:14;773.17;;;702.07;;
3000;SDS011;1510;51.072;6.678;2023-05-10T01:14:41;765.23;;;694.47;;
3000;SDS011;1510;51.072;6.678;2023-05-10T01:17:10;769.20;;;698.40;;
3000;SDS011;1510;51.072;6.678;2023-05-10T01:19:38;788.87;;;717.87;;
3000;SDS011;1510;51.072;6.678;2023-05-10T01:25:17;779.73;;;708.30;;
3000;SDS011;1510;51.072;6.678;2023-05-10T01:31:08;783.27;;;712.37;;
3000;SDS011;1510;51.072;6.678;2023-05-10T01:33:59;777.23;;;705.90;;
3000;SDS011;1510;51.072;6.678;2023-05-10T01:36:31;771.43;;;699.43;;
3000;SDS011;1510;51.072;6.678;2023-05-10T01:39:08;777.83;;;705.43;;
3000;SDS011;1510;51.072;6.678;2023-05-10T01:41:43;772.00;;;699.57;;
3000;SDS011;1510;51.072;6.678;2023-05-10T01:44:16;767.10;;;695.17;;
3000;SDS011;1510;51.072;6.678;2023-05-10T01:47:01;765.17;;;693.47;;
3000;SDS011;1510;51.072;6.678;2023-05-10T01:49:50;768.27;;;695.63;;
3000;SDS011;1510;51.072;6.678;2023-05-10T01:52:22;762.80;;;692.53;;
3000;SDS011;1510;51.072;6.678;2023-05-10T01:54:53;777.67;;;705.57;;
3000;SDS011;1510;51.072;6.678;2023-05-10T01:57:26;775.33;;;702.53;;
3000;SDS011;1510;51.072;6.678;2023-05-10T01:59:58;759.80;;;688.10;;
3000;SDS011;1510;51.072;6.678;2023-05-10T02:02:27;770.97;;;698.77;;
3000;SDS011;1510;51.072;6.678;2023-05-10T02:04:58;785.77;;;714.20;;
3000;SDS011;1510;51.072;6.678;2023-05-10T02:07:26;778.70;;;706.17;;
3000;SDS011;1510;51.072;6.678;2023-05-10T02:09:54;770.73;;;698.10;;
3000;SDS011;1510;51.072;6.678;2023-05-10T02:12:22;767.77;;;695.60;;
3000;SDS011;1510;51.072;6.678;2023-05-10T02:14:52;778.57;;;705.07;;
3000;SDS011;1510;51.072;6.678;2023-05-10T02:17:20;778.57;;;705.00;;
3000;SDS011;1510;51.072;6.678;2023-05-10T02:19:49;777.90;;;704.20;;
3000;SDS011;1510;51.072;6.678;2023-05-10T02:22:18;779.77;;;705.20;;
3000;SDS011;1510;51.072;6.678;2023-05-10T02:24:47;794.23;;;718.93;;
3000;SDS011;1510;51.072;6.678;2023-05-10T02:27:16;792.10;;;716.70;;
3000;SDS011;1510;51.072;6.678;2023-05-10T02:29:51;787.17;;;711.13;;
3000;SDS011;1510;51.072;6.678;2023-05-10T02:32:30;795.30;;;718.60;;
3000;SDS011;1510;51.072;6.678;2023-05-10T02:35:20;799.20;;;721.90;;
3000;SDS011;1510;51.072;6.678;2023-05-10T02:37:53;784.50;;;706.87;;
3000;SDS011;1510;51.072;6.678;2023-05-10T02:40:21;780.73;;;703.33;;
3000;SDS011;1510;51.072;6.678;2023-05-10T02:42:52;771.43;;;693.63;;
3000;SDS011;1510;51.072;6.678;2023-05-10T02:45:22;776.90;;;698.90;;
3000;SDS011;1510;51.072;6.678;2023-05-10T02:47:53;772.37;;;693.73;;
3000;SDS011;1510;51.072;6.678;2023-05-10T02:50:20;790.43;;;712.77;;
3000;SDS011;1510;51.072;6.678;2023-05-10T02:52:49;776.53;;;699.07;;
3000;SDS011;1510;51.072;6.678;2023-05-10T02:55:19;787.83;;;709.87;;
3000;SDS011;1510;51.072;6.678;2023-05-10T02:57:50;794.10;;;717.00;;
3000;SDS011;1510;51.072;6.678;2023-05-10T03:00:21;803.20;;;726.33;;
3000;SDS011;1510;51.072;6.678;2023-05-10T03:02:48;796.50;;;719.63;;
3000;SDS011;1510;51.072;6.678;2023-05-10T03:05:15;798.63;;;720.87;;
3000;SDS011;1510;51.072;6.678;2023-05-10T03:07:42;800.20;;;723.40;;
3000;SDS011;1510;51.072;6.678;2023-05-10T03:10:09;799.47;;;721.80;;
3000;SDS011;1510;51.072;6.678;2023-05-10T03:12:41;805.33;;;727.43;;
3000;SDS011;1510;51.072;6.678;2023-05-10T03:15:17;805.67;;;727.40;;
3000;SDS011;1510;51.072;6.678;2023-05-10T03:17:51;808.57;;;731.43;;
3000;SDS011;1510;51.072;6.678;2023-05-10T03:20:24;801.43;;;722.97;;
3000;SDS011;1510;51.072;6.678;2023-05-10T03:22:53;803.53;;;724.67;;
3000;SDS011;1510;51.072;6.678;2023-05-10T03:25:22;805.80;;;727.07;;
3000;SDS011;1510;51.072;6.678;2023-05-10T03:27:52;818.97;;;739.50;;
3000;SDS011;1510;51.072;6.678;2023-05-10T03:30:20;803.50;;;724.63;;
3000;SDS011;1510;51.072;6.678;2023-05-10T03:32:48;796.13;;;717.40;;
3000;SDS011;1510;51.072;6.678;2023-05-10T03:35:15;800.90;;;722.03;;
3000;SDS011;1510;51.072;6.678;2023-05-10T03:37:42;800.47;;;721.77;;
3000;SDS011;1510;51.072;6.678;2023-05-10T03:40:09;803.40;;;724.97;;
3000;SDS011;1510;51.072;6.678;2023-05-10T03:42:36;794.33;;;715.70;;
3000;SDS011;1510;51.072;6.678;2023-05-10T03:45:04;798.83;;;719.77;;
3000;SDS011;1510;51.072;6.678;2023-05-10T03:47:32;789.60;;;710.70;;
3000;SDS011;1510;51.072;6.678;2023-05-10T03:49:59;786.80;;;708.40;;
3000;SDS011;1510;51.072;6.678;2023-05-10T03:52:26;785.13;;;706.93;;
3000;SDS011;1510;51.072;6.678;2023-05-10T03:54:53;795.37;;;715.87;;
3000;SDS011;1510;51.072;6.678;2023-05-10T03:57:20;777.43;;;699.87;;
3000;SDS011;1510;51.072;6.678;2023-05-10T03:59:47;793.03;;;714.80;;
3000;SDS011;1510;51.072;6.678;2023-05-10T04:02:15;798.47;;;720.17;;
3000;SDS011;1510;51.072;6.678;2023-05-10T04:04:42;801.53;;;724.80;;
3000;SDS011;1510;51.072;6.678;2023-05-10T04:07:09;805.67;;;728.87;;
3000;SDS011;1510;51.072;6.678;2023-05-10T04:09:36;808.90;;;732.40;;
3000;SDS011;1510;51.072;6.678;2023-05-10T04:12:03;795.90;;;720.47;;
3000;SDS011;1510;51.072;6.678;2023-05-10T04:14:30;804.87;;;730.00;;
3000;SDS011;1510;51.072;6.678;2023-05-10T04:16:59;798.97;;;724.83;;
3000;SDS011;1510;51.072;6.678;2023-05-10T04:19:30;799.27;;;726.50;;
3000;SDS011;1510;51.072;6.678;2023-05-10T04:21:57;797.57;;;726.07;;
3000;SDS011;1510;51.072;6.678;2023-05-10T04:24:25;801.90;;;729.63;;
3000;SDS011;1510;51.072;6.678;2023-05-10T04:26:53;797.07;;;725.43;;
3000;SDS011;1510;51.072;6.678;2023-05-10T04:29:21;809.47;;;739.83;;
3000;SDS011;1510;51.072;6.678;2023-05-10T04:31:48;798.67;;;728.67;;
3000;SDS011;1510;51.072;6.678;2023-05-10T04:34:16;794.70;;;725.63;;
3000;SDS011;1510;51.072;6.678;2023-05-10T04:36:44;795.80;;;727.70;;
3000;SDS011;1510;51.072;6.678;2023-05-10T04:39:11;786.37;;;719.77;;
3000;SDS011;1510;51.072;6.678;2023-05-10T04:41:38;759.67;;;694.20;;
3000;SDS011;1510;51.072;6.678;2023-05-10T04:44:05;755.00;;;691.40;;
3000;SDS011;1510;51.072;6.678;2023-05-10T04:46:32;737.20;;;675.73;;
3000;SDS011;1510;51.072;6.678;2023-05-10T04:48:59;723.73;;;665.53;;
3000;SDS011;1510;51.072;6.678;2023-05-10T04:51:26;729.37;;;670.10;;
3000;SDS011;1510;51.072;6.678;2023-05-10T04:53:54;739.53;;;681.53;;
3000;SDS011;1510;51.072;6.678;2023-05-10T04:56:21;733.00;;;675.37;;
3000;SDS011;1510;51.072;6.678;2023-05-10T04:58:48;719.07;;;662.60;;
3000;SDS011;1510;51.072;6.678;2023-05-10T05:01:15;718.73;;;661.57;;
3000;SDS011;1510;51.072;6.678;2023-05-10T05:03:42;711.77;;;655.33;;
3000;SDS011;1510;51.072;6.678;2023-05-10T05:06:09;697.87;;;642.63;;
3000;SDS011;1510;51.072;6.678;2023-05-10T05:08:36;722.77;;;667.67;;
3000;SDS011;1510;51.072;6.678;2023-05-10T05:11:04;718.67;;;664.07;;
3000;SDS011;1510;51.072;6.678;2023-05-10T05:13:31;726.67;;;671.10;;
3000;SDS011;1510;51.072;6.678;2023-05-10T05:15:59;716.60;;;662.43;;
3000;SDS011;1510;51.072;6.678;2023-05-10T05:18:28;704.60;;;650.77;;
3000;SDS011;1510;51.072;6.678;2023-05-10T05:20:55;703.40;;;647.90;;
3000;SDS011;1510;51.072;6.678;2023-05-10T05:23:22;696.47;;;643.17;;
3000;SDS011;1510;51.072;6.678;2023-05-10T05:25:51;703.83;;;650.90;;
3000;SDS011;1510;51.072;6.678;2023-05-10T05:28:20;700.67;;;647.37;;
3000;SDS011;1510;51.072;6.678;2023-05-10T05:30:47;709.90;;;656.10;;
3000;SDS011;1510;51.072;6.678;2023-05-10T05:33:14;715.17;;;660.63;;
3000;SDS011;1510;51.072;6.678;2023-05-10T05:35:41;712.53;;;657.87;;
3000;SDS011;1510;51.072;6.678;2023-05-10T05:38:12;697.10;;;642.53;;
3000;SDS011;1510;51.072;6.678;2023-05-10T05:40:39;710.03;;;654.10;;
3000;SDS011;1510;51.072;6.678;2023-05-10T05:43:06;708.67;;;653.40;;
3000;SDS011;1510;51.072;6.678;2023-05-10T05:45:34;712.60;;;657.80;;
3000;SDS011;1510;51.072;6.678;2023-05-10T05:48:01;708.33;;;654.37;;
3000;SDS011;1510;51.072;6.678;2023-05-10T05:50:28;718.70;;;664.80;;
3000;SDS011;1510;51.072;6.678;2023-05-10T05:52:54;714.97;;;660.83;;
3000;SDS011;1510;51.072;6.678;2023-05-10T05:55:22;709.80;;;655.97;;
3000;SDS011;1510;51.072;6.678;2023-05-10T05:57:50;710.70;;;654.90;;
3000;SDS011;1510;51.072;6.678;2023-05-10T06:00:18;724.30;;;667.97;;
3000;SDS011;1510;51.072;6.678;2023-05-10T06:02:47;712.57;;;656.60;;
3000;SDS011;1510;51.072;6.678;2023-05-10T06:05:14;720.57;;;665.23;;
3000;SDS011;1510;51.072;6.678;2023-05-10T06:07:41;721.10;;;666.60;;
3000;SDS011;1510;51.072;6.678;2023-05-10T06:10:10;721.17;;;667.07;;
3000;SDS011;1510;51.072;6.678;2023-05-10T06:12:37;717.33;;;662.50;;
3000;SDS011;1510;51.072;6.678;2023-05-10T06:15:04;725.60;;;669.90;;
3000;SDS011;1510;51.072;6.678;2023-05-10T06:17:31;725.40;;;669.73;;
3000;SDS011;1510;51.072;6.678;2023-05-10T06:20:01;726.67;;;668.73;;
3000;SDS011;1510;51.072;6.678;2023-05-10T06:22:28;727.30;;;668.33;;
3000;SDS011;1510;51.072;6.678;2023-05-10T06:24:54;730.27;;;669.93;;
3000;SDS011;1510;51.072;6.678;2023-05-10T06:27:21;734.17;;;672.67;;
3000;SDS011;1510;51.072;6.678;2023-05-10T06:29:48;739.30;;;677.80;;
3000;SDS011;1510;51.072;6.678;2023-05-10T06:32:15;732.73;;;670.73;;
3000;SDS011;1510;51.072;6.678;2023-05-10T06:34:42;736.43;;;673.67;;
3000;SDS011;1510;51.072;6.678;2023-05-10T06:37:11;728.87;;;665.07;;
3000;SDS011;1510;51.072;6.678;2023-05-10T06:39:37;737.43;;;673.20;;
3000;SDS011;1510;51.072;6.678;2023-05-10T06:42:04;712.50;;;648.77;;
3000;SDS011;1510;51.072;6.678;2023-05-10T06:44:31;720.10;;;656.00;;
3000;SDS011;1510;51.072;6.678;2023-05-10T06:46:58;738.50;;;674.87;;
3000;SDS011;1510;51.072;6.678;2023-05-10T06:49:25;728.60;;;666.60;;
3000;SDS011;1510;51.072;6.678;2023-05-10T06:51:52;725.80;;;664.77;;
3000;SDS011;1510;51.072;6.678;2023-05-10T06:54:20;718.73;;;659.83;;
3000;SDS011;1510;51.072;6.678;2023-05-10T06:56:48;716.27;;;658.20;;
3000;SDS011;1510;51.072;6.678;2023-05-10T06:59:14;725.03;;;665.57;;
3000;SDS011;1510;51.072;6.678;2023-05-10T07:01:42;714.97;;;657.13;;
3000;SDS011;1510;51.072;6.678;2023-05-10T07:04:08;718.50;;;661.40;;
3000;SDS011;1510;51.072;6.678;2023-05-10T07:06:35;721.80;;;665.50;;
3000;SDS011;1510;51.072;6.678;2023-05-10T07:09:02;724.80;;;669.43;;
3000;SDS011;1510;51.072;6.678;2023-05-10T07:11:30;724.57;;;668.97;;
3000;SDS011;1510;51.072;6.678;2023-05-10T07:13:57;733.47;;;677.90;;
3000;SDS011;1510;51.072;6.678;2023-05-10T07:16:24;735.70;;;680.80;;
3000;SDS011;1510;51.072;6.678;2023-05-10T07:18:51;697.60;;;650.50;;
3000;SDS011;1510;51.072;6.678;2023-05-10T07:21:18;699.90;;;652.60;;
3000;SDS011;1510;51.072;6.678;2023-05-10T07:23:45;686.33;;;641.43;;
3000;SDS011;1510;51.072;6.678;2023-05-10T07:26:12;606.57;;;575.17;;
3000;SDS011;1510;51.072;6.678;2023-05-10T07:28:41;610.43;;;579.03;;
3000;SDS011;1510;51.072;6.678;2023-05-10T07:31:08;611.70;;;580.53;;
3000;SDS011;1510;51.072;6.678;2023-05-10T07:33:35;608.53;;;578.37;;
3000;SDS011;1510;51.072;6.678;2023-05-10T07:36:02;625.80;;;593.43;;
3000;SDS011;1510;51.072;6.678;2023-05-10T07:38:28;652.30;;;617.97;;
3000;SDS011;1510;51.072;6.678;2023-05-10T07:40:55;678.07;;;638.60;;
3000;SDS011;1510;51.072;6.678;2023-05-10T07:43:25;687.67;;;644.80;;
3000;SDS011;1510;51.072;6.678;2023-05-10T07:45:53;690.23;;;646.80;;
3000;SDS011;1510;51.072;6.678;2023-05-10T07:48:22;666.60;;;627.60;;
3000;SDS011;1510;51.072;6.678;2023-05-10T07:50:49;645.37;;;610.37;;
3000;SDS011;1510;51.072;6.678;2023-05-10T07:53:16;616.43;;;584.63;;
3000;SDS011;1510;51.072;6.678;2023-05-10T07:55:43;578.63;;;551.23;;
3000;SDS011;1510;51.072;6.678;2023-05-10T07:58:11;595.60;;;567.27;;
3000;SDS011;1510;51.072;6.678;2023-05-10T08:00:37;581.00;;;553.63;;
3000;SDS011;1510;51.072;6.678;2023-05-10T08:03:07;490.73;;;468.73;;
3000;SDS011;1510;51.072;6.678;2023-05-10T08:05:34;464.20;;;444.77;;
3000;SDS011;1510;51.072;6.678;2023-05-10T08:08:01;295.50;;;282.50;;
3000;SDS011;1510;51.072;6.678;2023-05-10T08:10:28;282.13;;;270.13;;
3000;SDS011;1510;51.072;6.678;2023-05-10T08:12:55;71.73;;;66.33;;
3000;SDS011;1510;51.072;6.678;2023-05-10T08:15:23;36.63;;;31.73;;
3000;SDS011;1510;51.072;6.678;2023-05-10T08:17:51;35.90;;;27.10;;
3000;SDS011;1510;51.072;6.678;2023-05-10T08:20:19;35.83;;;23.60;;
3000;SDS011;1510;51.072;6.678;2023-05-10T08:22:46;34.27;;;22.83;;
3000;SDS011;1510;51.072;6.678;2023-05-10T08:25:13;32.20;;;18.13;;
3000;SDS011;1510;51.072;6.678;2023-05-10T08:27:40;30.27;;;17.77;;
3000;SDS011;1510;51.072;6.678;2023-05-10T08:30:07;35.97;;;18.60;;
3000;SDS011;1510;51.072;6.678;2023-05-10T08:32:35;35.43;;;19.30;;
3000;SDS011;1510;51.072;6.678;2023-05-10T08:35:03;35.20;;;19.17;;
3000;SDS011;1510;51.072;6.678;2023-05-10T08:37:31;36.67;;;20.90;;
3000;SDS011;1510;51.072;6.678;2023-05-10T08:39:58;40.60;;;21.37;;
3000;SDS011;1510;51.072;6.678;2023-05-10T08:42:25;34.13;;;17.50;;
3000;SDS011;1510;51.072;6.678;2023-05-10T08:44:56;32.23;;;19.13;;
3000;SDS011;1510;51.072;6.678;2023-05-10T08:47:25;32.10;;;17.33;;
3000;SDS011;1510;51.072;6.678;2023-05-10T08:49:52;37.63;;;17.97;;
3000;SDS011;1510;51.072;6.678;2023-05-10T08:52:20;33.93;;;17.83;;
3000;SDS011;1510;51.072;6.678;2023-05-10T08:54:50;29.40;;;18.33;;
3000;SDS011;1510;51.072;6.678;2023-05-10T08:57:18;30.80;;;16.27;;
3000;SDS011;1510;51.072;6.678;2023-05-10T08:59:45;36.50;;;18.50;;
3000;SDS011;1510;51.072;6.678;2023-05-10T09:02:12;39.83;;;18.67;;
3000;SDS011;1510;51.072;6.678;2023-05-10T09:04:39;36.53;;;20.10;;
3000;SDS011;1510;51.072;6.678;2023-05-10T09:07:07;34.77;;;19.60;;
3000;SDS011;1510;51.072;6.678;2023-05-10T09:09:34;45.17;;;25.27;;
3000;SDS011;1510;51.072;6.678;2023-05-10T09:12:02;36.87;;;24.70;;
3000;SDS011;1510;51.072;6.678;2023-05-10T09:14:29;36.50;;;23.70;;
3000;SDS011;1510;51.072;6.678;2023-05-10T09:16:59;34.07;;;26.20;;
3000;SDS011;1510;51.072;6.678;2023-05-10T09:19:27;42.73;;;33.27;;
3000;SDS011;1510;51.072;6.678;2023-05-10T09:21:54;66.53;;;61.03;;
3000;SDS011;1510;51.072;6.678;2023-05-10T09:24:24;92.23;;;86.43;;
3000;SDS011;1510;51.072;6.678;2023-05-10T09:26:52;105.73;;;99.43;;
3000;SDS011;1510;51.072;6.678;2023-05-10T09:29:20;66.93;;;61.90;;
3000;SDS011;1510;51.072;6.678;2023-05-10T09:31:48;40.47;;;36.23;;
3000;SDS011;1510;51.072;6.678;2023-05-10T09:34:17;33.47;;;21.10;;
3000;SDS011;1510;51.072;6.678;2023-05-10T09:36:52;29.47;;;17.77;;
3000;SDS011;1510;51.072;6.678;2023-05-10T09:39:20;26.00;;;15.60;;
3000;SDS011;1510;51.072;6.678;2023-05-10T09:41:47;27.63;;;17.03;;
3000;SDS011;1510;51.072;6.678;2023-05-10T09:44:16;25.80;;;15.20;;
3000;SDS011;1510;51.072;6.678;2023-05-10T09:46:49;28.57;;;16.70;;
3000;SDS011;1510;51.072;6.678;2023-05-10T09:49:17;28.27;;;15.90;;
3000;SDS011;1510;51.072;6.678;2023-05-10T09:51:46;24.07;;;14.77;;
3000;SDS011;1510;51.072;6.678;2023-05-10T09:54:23;30.40;;;14.43;;
3000;SDS011;1510;51.072;6.678;2023-05-10T09:56:50;25.50;;;15.67;;
3000;SDS011;1510;51.072;6.678;2023-05-10T09:59:17;26.77;;;15.80;;
3000;SDS011;1510;51.072;6.678;2023-05-10T10:01:50;29.87;;;16.57;;
3000;SDS011;1510;51.072;6.678;2023-05-10T10:04:17;27.73;;;15.80;;
3000;SDS011;1510;51.072;6.678;2023-05-10T10:06:45;26.73;;;15.40;;
3000;SDS011;1510;51.072;6.678;2023-05-10T10:09:12;32.50;;;17.10;;
3000;SDS011;1510;51.072;6.678;2023-05-10T10:11:40;27.80;;;14.33;;
3000;SDS011;1510;51.072;6.678;2023-05-10T10:14:07;21.47;;;11.97;;
3000;SDS011;1510;51.072;6.678;2023-05-10T10:16:34;20.50;;;12.60;;
3000;SDS011;1510;51.072;6.678;2023-05-10T10:19:02;18.40;;;11.47;;
3000;SDS011;1510;51.072;6.678;2023-05-10T10:21:29;21.03;;;11.67;;
3000;SDS011;1510;51.072;6.678;2023-05-10T10:23:57;18.30;;;10.90;;
3000;SDS011;1510;51.072;6.678;2023-05-10T10:26:25;21.97;;;13.00;;
3000;SDS011;1510;51.072;6.678;2023-05-10T10:28:56;20.20;;;12.20;;
3000;SDS011;1510;51.072;6.678;2023-05-10T10:31:34;21.10;;;11.83;;
3000;SDS011;1510;51.072;6.678;2023-05-10T10:34:08;19.13;;;12.07;;
3000;SDS011;1510;51.072;6.678;2023-05-10T10:36:42;21.47;;;11.60;;
3000;SDS011;1510;51.072;6.678;2023-05-10T10:39:11;16.50;;;9.47;;
3000;SDS011;1510;51.072;6.678;2023-05-10T10:41:39;17.83;;;10.20;;
3000;SDS011;1510;51.072;6.678;2023-05-10T10:44:33;16.57;;;9.93;;
3000;SDS011;1510;51.072;6.678;2023-05-10T10:47:04;19.53;;;9.87;;
3000;SDS011;1510;51.072;6.678;2023-05-10T10:49:38;14.13;;;8.53;;
3000;SDS011;1510;51.072;6.678;2023-05-10T10:52:20;15.20;;;8.20;;
3000;SDS011;1510;51.072;6.678;2023-05-10T10:54:51;15.43;;;8.83;;
3000;SDS011;1510;51.072;6.678;2023-05-10T10:57:20;15.67;;;8.80;;
3000;SDS011;1510;51.072;6.678;2023-05-10T10:59:51;15.53;;;9.13;;
3000;SDS011;1510;51.072;6.678;2023-05-10T11:02:44;17.10;;;9.67;;
3000;SDS011;1510;51.072;6.678;2023-05-10T11:08:19;15.33;;;8.60;;
3000;SDS011;1510;51.072;6.678;2023-05-10T11:10:53;17.37;;;8.67;;
3000;SDS011;1510;51.072;6.678;2023-05-10T11:13:32;16.33;;;8.27;;
3000;SDS011;1510;51.072;6.678;2023-05-10T11:16:16;15.83;;;8.87;;
3000;SDS011;1510;51.072;6.678;2023-05-10T11:18:56;12.60;;;7.50;;
3000;SDS011;1510;51.072;6.678;2023-05-10T11:21:27;12.27;;;7.70;;
3000;SDS011;1510;51.072;6.678;2023-05-10T11:23:55;16.03;;;7.50;;
3000;SDS011;1510;51.072;6.678;2023-05-10T11:26:23;13.80;;;7.50;;
3000;SDS011;1510;51.072;6.678;2023-05-10T11:28:51;13.70;;;7.33;;
3000;SDS011;1510;51.072;6.678;2023-05-10T11:31:20;11.90;;;6.73;;
3000;SDS011;1510;51.072;6.678;2023-05-10T11:33:49;12.10;;;7.07;;
3000;SDS011;1510;51.072;6.678;2023-05-10T11:36:18;12.30;;;6.80;;
3000;SDS011;1510;51.072;6.678;2023-05-10T11:38:48;14.40;;;7.20;;
3000;SDS011;1510;51.072;6.678;2023-05-10T11:41:15;11.90;;;6.87;;
3000;SDS011;1510;51.072;6.678;2023-05-10T11:43:43;10.90;;;7.20;;
3000;SDS011;1510;51.072;6.678;2023-05-10T11:46:13;17.50;;;7.57;;
3000;SDS011;1510;51.072;6.678;2023-05-10T11:48:41;12.60;;;6.57;;
3000;SDS011;1510;51.072;6.678;2023-05-10T11:51:08;13.27;;;7.50;;
3000;SDS011;1510;51.072;6.678;2023-05-10T11:53:37;11.30;;;6.07;;
3000;SDS011;1510;51.072;6.678;2023-05-10T11:56:05;11.97;;;6.87;;
3000;SDS011;1510;51.072;6.678;2023-05-10T11:58:34;14.60;;;7.30;;
3000;SDS011;1510;51.072;6.678;2023-05-10T12:01:01;16.93;;;7.20;;
3000;SDS011;1510;51.072;6.678;2023-05-10T12:03:29;11.67;;;7.30;;
3000;SDS011;1510;51.072;6.678;2023-05-10T12:05:57;12.33;;;7.83;;
3000;SDS011;1510;51.072;6.678;2023-05-10T12:08:25;11.07;;;7.37;;
3000;SDS011;1510;51.072;6.678;2023-05-10T12:11:04;10.87;;;6.70;;
3000;SDS011;1510;51.072;6.678;2023-05-10T12:13:37;13.17;;;6.97;;
3000;SDS011;1510;51.072;6.678;2023-05-10T12:16:15;10.20;;;5.60;;
3000;SDS011;1510;51.072;6.678;2023-05-10T12:18:42;11.70;;;6.10;;
3000;SDS011;1510;51.072;6.678;2023-05-10T12:21:10;7.60;;;4.40;;
3000;SDS011;1510;51.072;6.678;2023-05-10T12:23:37;9.60;;;4.87;;
3000;SDS011;1510;51.072;6.678;2023-05-10T12:26:04;6.93;;;3.77;;
3000;SDS011;1510;51.072;6.678;2023-05-10T12:28:34;7.20;;;3.90;;
3000;SDS011;1510;51.072;6.678;2023-05-10T12:31:01;9.03;;;4.40;;
3000;SDS011;1510;51.072;6.678;2023-05-10T12:33:35;7.10;;;3.70;;
3000;SDS011;1510;51.072;6.678;2023-05-10T12:36:04;6.93;;;3.83;;
3000;SDS011;1510;51.072;6.678;2023-05-10T12:38:32;8.93;;;3.83;;
3000;SDS011;1510;51.072;6.678;2023-05-10T12:41:00;7.33;;;3.70;;
3000;SDS011;1510;51.072;6.678;2023-05-10T12:43:29;5.80;;;2.83;;
3000;SDS011;1510;51.072;6.678;2023-05-10T12:45:56;9.90;;;4.20;;
3000;SDS011;1510;51.072;6.678;2023-05-10T12:48:23;7.30;;;3.60;;
3000;SDS011;1510;51.072;6.678;2023-05-10T12:50:50;6.93;;;3.80;;
3000;SDS011;1510;51.072;6.678;2023-05-10T12:53:17;8.60;;;4.60;;
3000;SDS011;1510;51.072;6.678;2023-05-10T12:55:43;10.10;;;4.30;;
3000;SDS011;1510;51.072;6.678;2023-05-10T12:58:10;6.90;;;3.73;;
3000;SDS011;1510;51.072;6.678;2023-05-10T13:00:38;8.60;;;4.80;;
3000;SDS011;1510;51.072;6.678;2023-05-10T13:03:05;8.00;;;3.97;;
3000;SDS011;1510;51.072;6.678;2023-05-10T13:05:32;7.87;;;4.07;;
3000;SDS011;1510;51.072;6.678;2023-05-10T13:07:59;7.53;;;4.40;;
3000;SDS011;1510;51.072;6.678;2023-05-10T13:10:27;7.47;;;3.70;;
3000;SDS011;1510;51.072;6.678;2023-05-10T13:12:55;7.40;;;3.63;;
3000;SDS011;1510;51.072;6.678;2023-05-10T13:15:22;8.07;;;4.20;;
3000;SDS011;1510;51.072;6.678;2023-05-10T13:17:50;7.07;;;3.67;;
3000;SDS011;1510;51.072;6.678;2023-05-10T13:20:17;7.93;;;4.00;;
3000;SDS011;1510;51.072;6.678;2023-05-10T13:22:44;8.30;;;3.90;;
3000;SDS011;1510;51.072;6.678;2023-05-10T13:25:11;6.90;;;3.77;;
3000;SDS011;1510;51.072;6.678;2023-05-10T13:27:38;6.50;;;3.30;;
3000;SDS011;1510;51.072;6.678;2023-05-10T13:30:06;8.53;;;4.30;;
3000;SDS011;1510;51.072;6.678;2023-05-10T13:32:34;10.70;;;6.50;;
3000;SDS011;1510;51.072;6.678;2023-05-10T13:35:03;12.70;;;5.33;;
3000;SDS011;1510;51.072;6.678;2023-05-10T13:37:30;7.20;;;3.50;;
3000;SDS011;1510;51.072;6.678;2023-05-10T13:40:00;7.20;;;4.07;;
3000;SDS011;1510;51.072;6.678;2023-05-10T13:42:27;9.63;;;5.67;;
3000;SDS011;1510;51.072;6.678;2023-05-10T13:44:54;8.33;;;4.70;;
3000;SDS011;1510;51.072;6.678;2023-05-10T13:47:21;11.43;;;5.47;;
3000;SDS011;1510;51.072;6.678;2023-05-10T13:49:48;9.63;;;5.03;;
3000;SDS011;1510;51.072;6.678;2023-05-10T13:52:16;12.83;;;6.40;;
3000;SDS011;1510;51.072;6.678;2023-05-10T13:54:44;9.67;;;4.50;;
3000;SDS011;1510;51.072;6.678;2023-05-10T13:57:11;6.57;;;3.20;;
3000;SDS011;1510;51.072;6.678;2023-05-10T13:59:38;8.03;;;3.60;;
3000;SDS011;1510;51.072;6.678;2023-05-10T14:02:05;8.03;;;3.60;;
3000;SDS011;1510;51.072;6.678;2023-05-10T14:04:32;8.47;;;3.37;;
3000;SDS011;1510;51.072;6.678;2023-05-10T14:07:00;6.73;;;3.33;;
3000;SDS011;1510;51.072;6.678;2023-05-10T14:09:28;7.73;;;3.73;;
3000;SDS011;1510;51.072;6.678;2023-05-10T14:11:55;8.27;;;3.80;;
3000;SDS011;1510;51.072;6.678;2023-05-10T14:14:22;6.80;;;3.47;;
3000;SDS011;1510;51.072;6.678;2023-05-10T14:16:49;6.90;;;2.83;;
3000;SDS011;1510;51.072;6.678;2023-05-10T14:19:16;8.50;;;3.00;;
3000;SDS011;1510;51.072;6.678;2023-05-10T14:21:44;6.63;;;2.50;;
3000;SDS011;1510;51.072;6.678;2023-05-10T14:24:11;6.80;;;2.90;;
3000;SDS011;1510;51.072;6.678;2023-05-10T14:26:39;6.63;;;3.20;;
3000;SDS011;1510;51.072;6.678;2023-05-10T14:29:06;6.80;;;3.00;;
3000;SDS011;1510;51.072;6.678;2023-05-10T14:31:33;9.37;;;3.10;;
3000;SDS011;1510;51.072;6.678;2023-05-10T14:34:00;7.03;;;2.93;;
3000;SDS011;1510;51.072;6.678;2023-05-10T14:36:26;7.90;;;4.00;;
3000;SDS011;1510;51.072;6.678;2023-05-10T14:38:54;8.87;;;3.60;;
3000;SDS011;1510;51.072;6.678;2023-05-10T14:41:21;9.97;;;3.70;;
3000;SDS011;1510;51.072;6.678;2023-05-10T14:43:49;7.77;;;3.57;;
3000;SDS011;1510;51.072;6.678;2023-05-10T14:46:16;7.90;;;4.20;;
3000;SDS011;1510;51.072;6.678;2023-05-10T14:48:44;8.23;;;3.60;;
3000;SDS011;1510;51.072;6.678;2023-05-10T14:51:11;7.67;;;3.80;;
3000;SDS011;1510;51.072;6.678;2023-05-10T14:53:37;7.73;;;3.90;;
3000;SDS011;1510;51.072;6.678;2023-05-10T14:56:04;8.80;;;4.50;;